createdAt,value
2023-02-24T00:03:21.743Z,44.50
2023-02-24T00:08:23.864Z,42.73
2023-02-24T00:13:26.170Z,43.70
2023-02-24T00:18:29.586Z,42.30
2023-02-24T00:23:31.692Z,43.97
2023-02-24T00:28:34.156Z,48.10
2023-02-24T00:33:37.877Z,42.63
2023-02-24T00:38:40.909Z,48.90
2023-02-24T00:43:44.008Z,52.43
2023-02-24T00:48:49.568Z,40.13
2023-02-24T00:53:53.133Z,44.57
2023-02-24T00:58:56.427Z,39.40
2023-02-24T01:04:00.998Z,28.10
2023-02-24T01:09:03.100Z,27.57
2023-02-24T01:14:06.727Z,21.10
2023-02-24T01:19:10.683Z,23.83
2023-02-24T01:24:13.193Z,13.80
2023-02-24T01:29:15.320Z,15.47
2023-02-24T01:34:19.282Z,10.73
2023-02-24T01:39:21.165Z,16.37
2023-02-24T01:45:00.759Z,12.40
2023-02-24T01:50:05.390Z,19.57
2023-02-24T01:55:10.927Z,7.63
2023-02-24T02:00:15.668Z,11.43
2023-02-24T02:05:19.423Z,15.77
2023-02-24T02:10:21.271Z,8.13
2023-02-24T02:15:23.847Z,5.80
2023-02-24T02:20:52.889Z,10.73
2023-02-24T02:26:28.646Z,14.73
2023-02-24T02:31:55.702Z,13.90
2023-02-24T02:37:05.400Z,16.63
2023-02-24T02:42:16.400Z,9.77
2023-02-24T02:47:26.682Z,14.33
2023-02-24T02:52:36.164Z,11.50
2023-02-24T02:57:43.298Z,11.13
2023-02-24T03:02:49.852Z,7.07
2023-02-24T03:07:55.704Z,9.00
2023-02-24T03:13:00.907Z,4.70
2023-02-24T03:18:07.871Z,10.70
2023-02-24T03:23:15.293Z,15.83
2023-02-24T03:28:22.525Z,8.60
2023-02-24T03:33:31.373Z,10.17
2023-02-24T03:38:35.114Z,10.67
2023-02-24T03:49:22.998Z,4.87
2023-02-24T03:54:45.088Z,8.40
2023-02-24T04:00:14.714Z,14.00
2023-02-24T04:05:21.899Z,11.53
2023-02-24T04:10:31.904Z,6.23
2023-02-24T04:15:41.361Z,4.50
2023-02-24T04:20:46.179Z,10.17
2023-02-24T04:25:52.174Z,4.20
2023-02-24T04:30:58.982Z,13.53
2023-02-24T04:36:01.221Z,10.00
2023-02-24T04:41:05.082Z,5.70
2023-02-24T04:46:07.137Z,8.20
2023-02-24T04:51:09.228Z,6.23
2023-02-24T04:56:12.806Z,10.10
2023-02-24T05:01:14.882Z,3.23
2023-02-24T05:06:17.927Z,8.53
2023-02-24T05:11:21.688Z,3.80
2023-02-24T05:16:24.220Z,2.50
2023-02-24T05:21:26.657Z,5.83
2023-02-24T05:26:30.182Z,5.30
2023-02-24T05:31:32.438Z,5.37
2023-02-24T05:36:38.041Z,4.30
2023-02-24T05:41:43.310Z,4.33
2023-02-24T05:46:46.189Z,5.50
2023-02-24T05:51:48.335Z,11.67
2023-02-24T05:56:52.202Z,6.57
2023-02-24T06:01:54.573Z,3.30
2023-02-24T06:06:56.945Z,5.57
2023-02-24T06:12:00.540Z,3.57
2023-02-24T06:17:02.499Z,7.43
2023-02-24T06:22:04.901Z,4.57
2023-02-24T06:27:08.640Z,4.03
2023-02-24T06:32:10.978Z,4.63
2023-02-24T06:37:15.417Z,3.93
2023-02-24T06:42:18.932Z,3.77
2023-02-24T06:47:21.038Z,7.00
2023-02-24T06:52:22.736Z,4.37
2023-02-24T06:57:26.359Z,5.80
2023-02-24T07:02:28.458Z,6.80
2023-02-24T07:07:30.752Z,12.47
2023-02-24T07:12:34.256Z,5.80
2023-02-24T07:17:36.462Z,3.37
2023-02-24T07:22:39.495Z,1.83
2023-02-24T07:27:42.634Z,2.07
2023-02-24T07:32:44.998Z,4.60
2023-02-24T07:37:47.470Z,5.00
2023-02-24T07:42:53.798Z,7.70
2023-02-24T07:47:56.228Z,2.87
2023-02-24T07:52:58.711Z,2.97
2023-02-24T07:58:02.011Z,5.03
2023-02-24T08:03:04.227Z,3.93
2023-02-24T08:08:06.455Z,2.77
2023-02-24T08:13:10.313Z,4.93
2023-02-24T08:18:12.752Z,3.50
2023-02-24T08:23:15.154Z,5.97
2023-02-24T08:28:18.809Z,4.23
2023-02-24T08:33:22.583Z,3.80
2023-02-24T08:38:26.527Z,5.37
2023-02-24T08:43:32.371Z,1.87
2023-02-24T08:48:36.341Z,2.60
2023-02-24T08:53:39.626Z,1.87
2023-02-24T08:58:44.745Z,4.33
2023-02-24T09:03:48.578Z,9.73
2023-02-24T09:08:51.345Z,5.37
2023-02-24T09:13:54.904Z,6.63
2023-02-24T09:18:57.044Z,1.70
2023-02-24T09:23:59.779Z,1.13
2023-02-24T09:29:03.313Z,3.30
2023-02-24T09:34:05.572Z,2.67
2023-02-24T09:39:08.442Z,3.93
2023-02-24T09:44:17.193Z,3.33
2023-02-24T09:49:23.118Z,3.27
2023-02-24T09:54:30.184Z,7.03
2023-02-24T09:59:43.656Z,1.47
2023-02-24T10:05:00.728Z,6.33
2023-02-24T10:10:08.015Z,1.40
2023-02-24T10:15:15.618Z,1.37
2023-02-24T10:20:20.608Z,1.80
2023-02-24T10:25:30.974Z,1.20
2023-02-24T10:30:45.304Z,1.80
2023-02-24T10:35:47.817Z,3.03
2023-02-24T10:40:53.978Z,1.33
2023-02-24T10:46:00.037Z,7.40
2023-02-24T10:51:09.465Z,2.60
2023-02-24T10:56:14.902Z,1.90
2023-02-24T11:07:21.672Z,2.60
2023-02-24T11:12:25.439Z,2.03
2023-02-24T11:17:28.920Z,3.87
2023-02-24T11:22:34.163Z,4.43
2023-02-24T11:27:36.573Z,1.57
2023-02-24T11:32:53.830Z,10.97
2023-02-24T11:38:04.284Z,3.67
2023-02-24T11:43:11.997Z,3.80
2023-02-24T11:48:20.156Z,4.93
2023-02-24T11:53:44.088Z,1.10
2023-02-24T11:58:54.256Z,1.40
2023-02-24T12:04:10.072Z,5.57
2023-02-24T12:15:10.818Z,4.27
2023-02-24T12:20:23.577Z,2.37
2023-02-24T12:25:29.692Z,5.40
2023-02-24T12:30:46.001Z,3.13
2023-02-24T12:36:01.381Z,3.77
2023-02-24T12:41:19.538Z,3.50
2023-02-24T12:46:26.617Z,4.37
2023-02-24T12:51:35.631Z,2.23
2023-02-24T12:56:47.049Z,4.23
2023-02-24T13:01:57.450Z,2.87
2023-02-24T13:07:17.852Z,2.40
2023-02-24T13:12:26.602Z,1.50
2023-02-24T13:17:47.192Z,2.50
2023-02-24T13:28:33.450Z,2.83
2023-02-24T13:33:37.910Z,2.00
2023-02-24T13:38:43.680Z,2.87
2023-02-24T13:43:54.716Z,2.47
2023-02-24T13:49:26.207Z,4.47
2023-02-24T13:55:03.270Z,2.47
2023-02-24T14:00:11.511Z,3.90
2023-02-24T14:05:22.254Z,3.63
2023-02-24T14:10:29.032Z,0.93
2023-02-24T14:15:31.524Z,1.67
2023-02-24T14:20:35.143Z,1.83
2023-02-24T14:25:39.435Z,3.17
2023-02-24T14:30:42.021Z,2.23
2023-02-24T14:35:47.846Z,1.10
2023-02-24T14:40:51.373Z,2.90
2023-02-24T14:45:54.512Z,1.90
2023-02-24T14:51:03.083Z,1.03
2023-02-24T14:56:07.320Z,1.63
2023-02-24T15:01:20.271Z,3.07
2023-02-24T15:06:25.223Z,1.23
2023-02-24T15:11:31.227Z,1.20
2023-02-24T15:16:38.844Z,1.80
2023-02-24T15:21:41.855Z,1.37
2023-02-24T15:26:52.774Z,2.33
2023-02-24T15:31:56.603Z,1.27
2023-02-24T15:37:01.991Z,2.77
2023-02-24T15:42:10.211Z,1.80
2023-02-24T15:47:22.133Z,1.90
2023-02-24T15:52:26.892Z,2.03
2023-02-24T15:57:31.986Z,3.60
2023-02-24T16:02:34.124Z,2.80
2023-02-24T16:07:38.372Z,4.97
2023-02-24T16:12:47.997Z,4.40
2023-02-24T16:18:14.509Z,3.77
2023-02-24T16:23:16.660Z,3.27
2023-02-24T16:28:21.857Z,5.00
2023-02-24T16:33:24.410Z,3.07
2023-02-24T16:38:27.221Z,5.20
2023-02-24T16:43:30.635Z,6.07
2023-02-24T16:48:35.226Z,6.90
2023-02-24T16:53:37.363Z,7.60
2023-02-24T16:58:41.081Z,7.03
2023-02-24T17:03:45.712Z,6.77
2023-02-24T17:08:47.790Z,7.17
2023-02-24T17:13:51.192Z,9.40
2023-02-24T17:18:53.560Z,8.73
2023-02-24T17:23:55.679Z,8.43
2023-02-24T17:28:59.095Z,9.83
2023-02-24T17:34:01.401Z,8.87
2023-02-24T17:39:03.766Z,10.37
2023-02-24T17:44:23.610Z,7.80
2023-02-24T17:55:29.897Z,12.77
2023-02-24T18:00:40.883Z,9.43
2023-02-24T18:05:42.691Z,12.60
2023-02-24T18:10:45.396Z,12.87
2023-02-24T18:15:49.325Z,11.97
2023-02-24T18:20:51.585Z,16.00
2023-02-24T18:25:54.429Z,11.03
2023-02-24T18:30:58.733Z,11.03
2023-02-24T18:36:02.173Z,16.93
2023-02-24T18:41:07.470Z,15.43
2023-02-24T18:46:13.550Z,11.13
2023-02-24T18:51:18.485Z,14.97
2023-02-24T18:56:23.076Z,12.67
2023-02-24T19:01:30.677Z,11.80
2023-02-24T19:06:34.145Z,13.37
2023-02-24T19:11:37.108Z,13.60
2023-02-24T19:16:41.528Z,19.13
2023-02-24T19:21:44.406Z,13.70
2023-02-24T19:26:46.462Z,16.17
2023-02-24T19:31:50.109Z,14.47
2023-02-24T19:36:51.956Z,13.33
2023-02-24T19:41:54.286Z,13.83
2023-02-24T19:46:57.832Z,15.90
2023-02-24T19:52:00.339Z,13.43
2023-02-24T19:57:02.967Z,13.07
2023-02-24T20:02:06.996Z,16.63
2023-02-24T20:07:09.257Z,15.23
2023-02-24T20:12:11.837Z,14.03
2023-02-24T20:17:15.278Z,17.07
2023-02-24T20:22:17.589Z,16.33
2023-02-24T20:27:32.214Z,16.70
2023-02-24T20:32:35.659Z,18.43
2023-02-24T20:37:37.475Z,17.30
2023-02-24T20:42:40.018Z,15.70
2023-02-24T20:47:43.206Z,17.80
2023-02-24T20:52:45.195Z,16.27
2023-02-24T20:57:46.923Z,16.87
2023-02-24T21:02:50.357Z,14.40
2023-02-24T21:07:53.513Z,16.43
2023-02-24T21:12:55.606Z,19.83
2023-02-24T21:17:59.337Z,16.20
2023-02-24T21:23:01.161Z,19.77
2023-02-24T21:28:03.072Z,17.60
2023-02-24T21:33:06.529Z,19.27
2023-02-24T21:38:09.177Z,17.33
2023-02-24T21:43:11.527Z,14.97
2023-02-24T21:48:15.267Z,19.77
2023-02-24T21:53:17.297Z,15.73
2023-02-24T21:58:20.349Z,22.60
2023-02-24T22:03:24.939Z,15.73
2023-02-24T22:08:51.286Z,15.13
2023-02-24T22:13:53.558Z,16.90
2023-02-24T22:18:56.969Z,15.30
2023-02-24T22:24:01.630Z,11.97
2023-02-24T22:29:03.990Z,15.07
2023-02-24T22:34:07.587Z,10.33
2023-02-24T22:39:10.067Z,8.10
2023-02-24T22:44:12.538Z,9.47
2023-02-24T22:49:16.374Z,9.73
2023-02-24T22:54:19.074Z,8.57
2023-02-24T22:59:21.063Z,4.73
2023-02-24T23:04:24.541Z,7.73
2023-02-24T23:09:26.775Z,9.27
2023-02-24T23:14:29.272Z,6.40
2023-02-24T23:19:32.888Z,4.70
2023-02-24T23:24:34.953Z,7.10
2023-02-24T23:29:37.119Z,3.93
2023-02-24T23:34:40.782Z,3.37
2023-02-24T23:39:42.964Z,6.63
2023-02-24T23:44:45.531Z,6.67
2023-02-24T23:49:48.973Z,8.57
2023-02-24T23:54:50.991Z,9.33
2023-02-24T23:59:53.046Z,8.47
